DW2537 Weather Reports


Display with metric or nautical units.
time (UTC)temp
F
wind
direction
speed
MPH
gust
MPH
rain 1hr
in
rain 24hr
in
rain mn
in
humidity
%
barometer
mb
20220121103704 19 21 2.0 5.0 0.00 0.30 0.00 60 1032.1
20220121103204 19 40 3.0 3.0 0.00 0.30 0.00 60 1032.1
20220121101705 19 43 3.0 8.0 0.00 0.30 0.00 59 1031.9
20220121101206 19 19 2.0 3.0 0.00 0.30 0.00 61 1031.8
20220121100704 19 13 3.0 3.0 0.00 0.30 0.00 59 1031.9
20220121100204 19 330 2.0 3.0 0.00 0.30 0.00 59 1031.8
20220121095704 19 28 1.0 3.0 0.00 0.30 0.00 60 1031.9
20220121095206 19 26 2.0 5.0 0.00 0.30 0.00 59 1031.7
20220121094703 19 32 5.0 5.0 0.00 0.30 0.00 57 1031.6
20220121094203 19 46 5.0 7.0 0.00 0.30 0.00 56 1031.5
20220121093704 20 38 3.0 5.0 0.00 0.30 0.00 57 1031.5
20220121093204 20 341 6.0 8.0 0.00 0.30 0.00 56 1031.5
20220121092704 20 328 2.0 3.0 0.00 0.30 0.00 56 1031.4
20220121092203 20 39 3.0 7.0 0.00 0.30 0.00 56 1031.4
20220121091704 20 17 2.0 7.0 0.00 0.30 0.00 56 1031.3
20220121090703 21 24 2.0 3.0 0.00 0.30 0.00 55 1031.1
20220121090204 21 28 3.0 6.0 0.00 0.30 0.00 55 1030.9
20220121085705 21 44 3.0 7.0 0.00 0.30 0.00 56 1030.9
20220121085204 21 41 3.0 5.0 0.00 0.30 0.00 56 1030.9
20220121084704 21 45 4.0 6.0 0.00 0.30 0.00 57 1030.9
20220121084203 21 28 1.0 2.0 0.00 0.30 0.00 56 1030.8
20220121083704 21 25 4.0 7.0 0.00 0.30 0.00 54 1030.6
20220121083205 21 60 5.0 8.0 0.00 0.30 0.00 54 1030.7
20220121082706 21 9 2.0 3.0 0.00 0.30 0.00 56 1030.6
20220121082204 22 11 5.0 8.0 0.00 0.30 0.00 55 1030.7
20220121081704 22 331 5.0 9.0 0.00 0.30 0.00 54 1030.9
20220121081206 22 19 3.0 7.0 0.00 0.30 0.00 56 1030.9
20220121080206 22 23 3.0 6.0 0.00 0.31 0.00 55 1030.9
20220121075707 22 43 3.0 8.0 0.00 0.31 0.00 56 1030.8
20220121074703 22 37 3.0 5.0 0.00 0.31 0.00 57 1030.8
20220121074203 22 23 2.0 3.0 0.00 0.32 0.00 58 1030.7
20220121073704 22 33 2.0 8.0 0.00 0.32 0.00 57 1030.7
20220121073205 22 48 6.0 10.0 0.00 0.32 0.00 57 1030.7
20220121072204 22 17 3.0 9.0 0.00 0.32 0.00 57 1030.6
20220121071704 22 55 2.0 7.0 0.00 0.33 0.00 58 1030.6
20220121071204 22 43 3.0 6.0 0.00 0.33 0.00 56 1030.5
20220121070704 23 34 4.0 7.0 0.00 0.33 0.00 56 1030.5
20220121070203 23 77 3.0 7.0 0.00 0.33 0.00 56 1030.5
20220121065704 23 50 5.0 8.0 0.00 0.33 0.00 57 1030.3
20220121065204 23 59 5.0 12.0 0.00 0.33 0.00 56 1030.3
20220121064703 23 54 4.0 7.0 0.00 0.33 0.00 56 1030.3
20220121064204 23 42 3.0 5.0 0.00 0.33 0.00 56 1030.3
20220121063703 23 43 4.0 10.0 0.00 0.33 0.00 55 1030.1
20220121062704 23 42 4.0 10.0 0.00 0.33 0.00 54 1030.2
20220121062205 23 318 4.0 7.0 0.00 0.33 0.00 54 1030.3
20220121061704 24 26 3.0 7.0 0.00 0.33 0.00 54 1030.2
20220121060704 24 45 3.0 7.0 0.00 0.33 0.00 56 1030.2
20220121060204 24 51 3.0 8.0 0.00 0.33 0.00 55 1030.3
20220121055703 24 21 2.0 3.0 0.00 0.33 0.00 57 1030.2
20220121055203 24 44 1.0 3.0 0.00 0.33 0.00 56 1030.2
20220121054705 24 5 2.0 5.0 0.00 0.33 0.00 55 1030.2
20220121053704 25 46 2.0 3.0 0.00 0.33 0.00 54 1030.2
20220121053204 25 70 1.0 3.0 0.00 0.33 0.00 54 1030.3
20220121052707 25 32 2.0 3.0 0.00 0.33 0.00 54 1030.2
20220121052204 25 39 3.0 5.0 0.00 0.33 0.00 54 1030.3
20220121051704 25 41 4.0 8.0 0.00 0.33 0.00 54 1030.3
20220121051204 25 45 2.0 3.0 0.00 0.33 0.00 56 1030.3
20220121050703 25 40 1.0 3.0 0.00 0.33 0.00 57 1030.1
20220121050206 25 62 2.0 3.0 0.00 0.33 0.00 56 1030.1
20220121045704 26 48 1.0 3.0 0.00 0.33 0.33 56 1030.1
20220121045204 26 30 3.0 3.0 0.00 0.33 0.33 56 1030.2
20220121044704 26 40 3.0 5.0 0.00 0.33 0.33 57 1030.2
20220121044203 26 9 2.0 3.0 0.00 0.33 0.33 55 1030.1
20220121043704 26 52 3.0 5.0 0.00 0.33 0.33 55 1030.2
20220121043204 26 43 2.0 3.0 0.00 0.33 0.33 56 1030.1
20220121042704 26 51 2.0 3.0 0.00 0.33 0.33 56 1030.1
20220121042204 26 39 3.0 3.0 0.00 0.33 0.33 55 1030.0
20220121041703 26 22 2.0 3.0 0.00 0.33 0.33 55 1030.0
20220121041204 27 60 2.0 3.0 0.00 0.33 0.33 54 1030.1
20220121040704 27 21 3.0 3.0 0.00 0.33 0.33 54 1030.1
20220121040206 27 39 3.0 3.0 0.00 0.33 0.33 54 1030.0
20220121035703 27 46 1.0 3.0 0.00 0.33 0.33 54 1030.0
20220121035205 27 5 3.0 5.0 0.00 0.33 0.33 53 1030.1
20220121034704 27 20 2.0 3.0 0.00 0.33 0.33 54 1030.1
20220121034204 27 46 2.0 7.0 0.00 0.33 0.33 54 1030.0
20220121033704 27 47 2.0 3.0 0.00 0.33 0.33 54 1030.0
20220121033205 27 46 3.0 7.0 0.00 0.33 0.33 54 1029.9
20220121032704 27 40 5.0 6.0 0.00 0.33 0.33 54 1029.8
20220121032205 28 29 5.0 7.0 0.00 0.33 0.33 54 1029.8
20220121031704 28 48 2.0 3.0 0.00 0.33 0.33 56 1029.7
20220121031204 28 49 2.0 5.0 0.00 0.33 0.33 57 1029.6
20220121030704 28 28 2.0 3.0 0.00 0.33 0.33 58 1029.5
20220121030204 28 40 2.0 3.0 0.00 0.33 0.33 59 1029.4
20220121025707 28 37 2.0 5.0 0.00 0.33 0.33 58 1029.3
20220121025204 28 41 3.0 7.0 0.00 0.33 0.33 57 1029.2
20220121024704 29 36 2.0 7.0 0.00 0.33 0.33 58 1029.2
20220121023704 29 35 2.0 5.0 0.00 0.33 0.33 57 1029.1
20220121023203 29 40 3.0 6.0 0.00 0.33 0.33 57 1029.0
20220121022704 29 30 3.0 6.0 0.00 0.33 0.33 58 1028.8
20220121022204 29 60 3.0 6.0 0.00 0.33 0.33 57 1028.8
20220121021703 29 43 3.0 5.0 0.00 0.33 0.33 57 1028.6
20220121021203 29 33 5.0 8.0 0.00 0.33 0.33 57 1028.5
20220121020204 29 36 2.0 3.0 0.00 0.33 0.33 61 1028.4
20220121015704 29 34 3.0 3.0 0.00 0.33 0.33 62 1028.3
20220121015204 30 71 2.0 3.0 0.00 0.33 0.33 62 1028.2
20220121014704 30 65 1.0 5.0 0.00 0.33 0.33 61 1028.1
20220121014203 30 45 2.0 7.0 0.00 0.33 0.33 62 1028.0
20220121013704 30 16 2.0 3.0 0.00 0.33 0.33 63 1027.9
20220121013206 30 23 1.0 2.0 0.00 0.33 0.33 64 1027.8
20220121012704 30 35 1.0 3.0 0.00 0.33 0.33 64 1027.8
20220121012203 30 49 1.0 3.0 0.00 0.33 0.33 63 1027.7
20220121011704 30 12 1.0 3.0 0.00 0.33 0.33 62 1027.5
20220121011204 30 58 2.0 7.0 0.00 0.33 0.33 62 1027.5
20220121010704 30 28 2.0 7.0 0.00 0.33 0.33 64 1027.5
20220121010204 30 49 1.0 3.0 0.00 0.33 0.33 64 1027.5
20220121005204 31 61 1.0 5.0 0.00 0.33 0.33 65 1027.3
20220121004703 31 42 2.0 5.0 0.00 0.33 0.33 64 1027.3
20220121004203 31 27 1.0 2.0 0.00 0.33 0.33 65 1027.1
20220121003703 31 47 3.0 7.0 0.00 0.33 0.33 64 1027.0
20220121003205 31 7 1.0 3.0 0.00 0.33 0.33 65 1026.9
20220121002704 31 34 1.0 3.0 0.00 0.33 0.33 65 1027.0
20220121001704 31 12 0.0 1.0 0.00 0.33 0.33 64 1026.8
20220121001206 31 17 1.0 3.0 0.00 0.33 0.33 63 1026.7
20220121000704 32 26 3.0 3.0 0.00 0.33 0.33 64 1026.7
20220121000204 32 310 1.0 3.0 0.00 0.33 0.33 63 1026.5
20220120235704 32 32 2.0 2.0 0.00 0.33 0.33 65 1026.4
20220120235203 32 22 1.0 2.0 0.00 0.33 0.33 64 1026.3
20220120234704 32 34 2.0 3.0 0.00 0.33 0.33 64 1026.2
20220120234204 32 28 1.0 3.0 0.00 0.33 0.33 64 1026.2
20220120233704 32 353 2.0 5.0 0.00 0.33 0.33 65 1026.1
20220120232705 32 23 1.0 3.0 0.00 0.33 0.33 65 1026.1
20220120232203 32 40 2.0 5.0 0.00 0.33 0.33 65 1026.0
20220120231705 33 28 2.0 3.0 0.00 0.33 0.33 66 1025.8
20220120231204 33 36 1.0 7.0 0.00 0.33 0.33 65 1025.8
20220120230704 33 15 2.0 5.0 0.00 0.33 0.33 67 1025.6
20220120230203 33 14 1.0 7.0 0.00 0.33 0.33 66 1025.4
20220120225703 33 31 1.0 6.0 0.00 0.33 0.33 68 1025.4
20220120225204 33 30 1.0 3.0 0.00 0.33 0.33 67 1025.3
20220120224704 33 23 1.0 3.0 0.00 0.33 0.33 68 1025.2
20220120224204 33 21 1.0 3.0 0.00 0.33 0.33 68 1025.1
20220120223704 33 22 3.0 5.0 0.00 0.33 0.33 66 1024.9
20220120223205 33 24 2.0 5.0 0.00 0.33 0.33 66 1024.9
20220120222705 33 44 2.0 5.0 0.00 0.33 0.33 69 1025.0
20220120222204 33 14 2.0 5.0 0.00 0.33 0.33 68 1024.9
20220120221704 33 24 4.0 6.0 0.00 0.33 0.33 69 1024.8
20220120221205 33 311 2.0 7.0 0.00 0.33 0.33 69 1024.8
20220120220703 33 41 1.0 7.0 0.00 0.33 0.33 69 1024.8
20220120220204 33 41 2.0 3.0 0.00 0.33 0.33 70 1024.7
20220120215704 33 34 2.0 3.0 0.00 0.33 0.33 71 1024.6
20220120215203 34 22 2.0 3.0 0.00 0.33 0.33 71 1024.6
20220120214205 34 31 3.0 5.0 0.00 0.33 0.33 70 1024.4
20220120213703 34 25 3.0 8.0 0.00 0.33 0.33 71 1024.3
20220120213203 34 37 3.0 3.0 0.00 0.33 0.33 73 1024.0
20220120212205 34 33 0.0 1.0 0.00 0.33 0.33 79 1023.8
20220120211707 34 41 1.0 3.0 0.00 0.33 0.33 79 1023.8
20220120211204 34 45 1.0 2.0 0.00 0.33 0.33 79 1023.7
20220120210704 34 79 1.0 3.0 0.00 0.33 0.33 78 1023.7
20220120210206 34 51 2.0 3.0 0.00 0.33 0.33 78 1023.5
20220120205704 34 57 1.0 3.0 0.00 0.33 0.33 79 1023.6
20220120205206 34 40 2.0 3.0 0.00 0.33 0.33 78 1023.4
20220120204204 34 42 2.0 3.0 0.00 0.33 0.33 80 1023.3
20220120203203 34 61 2.0 3.0 0.00 0.33 0.33 80 1023.2
20220120202704 34 32 3.0 5.0 0.00 0.33 0.33 80 1022.9
20220120202205 34 39 2.0 3.0 0.00 0.33 0.33 80 1022.9
20220120201703 34 53 2.0 3.0 0.00 0.33 0.33 81 1022.8
20220120200203 34 22 1.0 3.0 0.00 0.33 0.33 82 1022.8
20220120195703 34 44 1.0 3.0 0.00 0.33 0.33 81 1022.7
20220120195203 34 304 1.0 3.0 0.00 0.33 0.33 82 1022.7
20220120194703 34 44 0.0 3.0 0.00 0.33 0.33 82 1022.5
20220120194206 34 24 2.0 3.0 0.00 0.33 0.33 81 1022.5
20220120193706 34 35 4.0 5.0 0.00 0.33 0.33 82 1022.5
20220120193205 34 48 1.0 3.0 0.00 0.33 0.33 83 1022.3
20220120192704 34 44 3.0 5.0 0.00 0.33 0.33 82 1022.2
20220120192204 34 57 2.0 5.0 0.00 0.33 0.33 83 1022.2
20220120191704 34 62 3.0 7.0 0.00 0.33 0.33 83 1022.3
20220120191207 34 18 2.0 2.0 0.00 0.33 0.33 85 1022.3
20220120185705 34 5 2.0 3.0 0.00 0.33 0.33 86 1022.2
20220120184203 35 325 3.0 5.0 0.00 0.33 0.33 86 1022.2
20220120183705 35 11 2.0 3.0 0.00 0.33 0.33 86 1022.0
20220120183203 35 303 3.0 6.0 0.00 0.33 0.33 87 1022.1
20220120182704 35 13 1.0 5.0 0.00 0.33 0.33 88 1022.0
20220120181703 35 26 2.0 6.0 0.00 0.33 0.33 88 1022.3
20220120181204 35 23 0.0 3.0 0.00 0.33 0.33 89 1022.3
20220120180205 35 39 2.0 3.0 0.00 0.33 0.33 90 1022.2
20220120175705 35 318 2.0 3.0 0.00 0.33 0.33 90 1022.2
20220120175203 35 38 2.0 2.0 0.00 0.33 0.33 91 1022.2
20220120174705 35 0 2.0 3.0 0.00 0.33 0.33 91 1022.3
20220120174205 35 313 4.0 5.0 0.00 0.33 0.33 91 1022.4
20220120173707 35 1 3.0 5.0 0.00 0.33 0.33 91 1022.3
20220120173204 35 10 2.0 5.0 0.00 0.33 0.33 92 1022.3
20220120172705 35 3 3.0 3.0 0.00 0.33 0.33 92 1022.2
20220120172204 35 20 2.0 3.0 0.00 0.33 0.33 93 1022.3
20220120171204 35 36 4.0 6.0 0.00 0.33 0.33 94 1022.3
20220120170708 36 5 5.0 5.0 0.00 0.33 0.33 94 1022.3
20220120165705 36 32 5.0 5.0 0.00 0.33 0.33 95 1022.3
20220120165204 36 327 4.0 6.0 0.01 0.33 0.33 95 1022.4
20220120164204 36 12 2.0 3.0 0.01 0.33 0.33 96 1021.9
20220120162204 36 344 1.0 3.0 0.01 0.33 0.33 96 1022.4
20220120161207 36 5 0.0 2.0 0.02 0.33 0.33 96 1022.4
20220120160704 36 12 1.0 3.0 0.02 0.33 0.33 96 1022.1
20220120160205 36 294 2.0 3.0 0.02 0.33 0.33 96 1021.7
20220120155704 36 17 1.0 2.0 0.02 0.33 0.33 96 1021.6
20220120155204 36 5 1.0 2.0 0.02 0.33 0.33 96 1021.8
20220120154706 36 51 1.0 3.0 0.03 0.33 0.33 96 1021.7
20220120154204 36 18 2.0 2.0 0.03 0.33 0.33 96 1021.7
20220120153705 36 15 1.0 3.0 0.03 0.33 0.33 95 1021.7
20220120153206 36 354 0.0 3.0 0.02 0.32 0.32 95 1021.9
20220120152704 36 17 1.0 3.0 0.03 0.32 0.32 95 1021.9
20220120152204 36 37 2.0 3.0 0.03 0.32 0.32 95 1021.9
20220120151706 36 19 1.0 3.0 0.03 0.32 0.32 95 1021.7
20220120151204 36 52 2.0 5.0 0.02 0.31 0.31 95 1021.5
20220120150704 36 52 2.0 5.0 0.02 0.31 0.31 95 1021.6
20220120150204 36 5 2.0 3.0 0.03 0.31 0.31 95 1021.6
20220120145704 36 344 0.0 3.0 0.03 0.31 0.31 95 1021.3
20220120145204 36 27 1.0 3.0 0.04 0.31 0.31 95 1021.3
20220120144704 36 359 2.0 5.0 0.03 0.30 0.30 95 1021.3
20220120144204 36 42 3.0 7.0 0.03 0.30 0.30 95 1021.2
20220120143704 37 25 4.0 9.0 0.04 0.30 0.30 95 1021.1
20220120143203 37 26 2.0 3.0 0.05 0.30 0.30 95 1021.0
20220120142704 37 35 2.0 8.0 0.04 0.29 0.29 95 1021.0
20220120142204 37 19 3.0 12.0 0.05 0.29 0.29 95 1020.7
20220120141705 37 24 4.0 9.0 0.06 0.29 0.29 95 1020.5
20220120141205 38 30 3.0 9.0 0.06 0.29 0.29 95 1020.5
20220120140703 38 43 1.0 3.0 0.07 0.29 0.29 95 1020.5
20220120140204 38 35 2.0 3.0 0.07 0.28 0.28 96 1020.4
20220120135705 38 38 2.0 3.0 0.08 0.28 0.28 96 1020.6
20220120135204 38 31 2.0 3.0 0.08 0.27 0.27 96 1020.5
20220120134704 39 336 2.0 7.0 0.09 0.27 0.27 96 1020.4
20220120134203 39 30 2.0 3.0 0.09 0.27 0.27 96 1020.2
20220120133704 39 22 1.0 3.0 0.09 0.26 0.26 96 1020.1
20220120133205 39 28 1.0 3.0 0.08 0.25 0.25 96 1020.0
20220120132705 40 46 2.0 3.0 0.09 0.25 0.25 96 1020.0
20220120132204 40 25 0.0 0.0 0.08 0.24 0.24 96 1019.9
20220120131703 40 25 1.0 3.0 0.08 0.23 0.23 96 1019.7
20220120131206 40 40 1.0 2.0 0.08 0.23 0.23 96 1019.7
20220120130705 40 59 1.0 5.0 0.08 0.22 0.22 96 1019.5
20220120130205 40 165 0.0 0.0 0.08 0.21 0.21 96 1019.6
20220120125704 40 165 0.0 0.0 0.08 0.20 0.20 96 1019.5
20220120125204 40 165 0.0 0.0 0.08 0.19 0.19 96 1019.4
20220120124704 40 165 0.0 0.0 0.07 0.18 0.18 96 1019.5
20220120124205 40 165 0.0 0.0 0.08 0.18 0.18 96 1019.4
20220120123706 40 165 0.0 0.0 0.08 0.17 0.17 96 1019.2
20220120123204 40 165 0.0 0.0 0.08 0.17 0.17 96 1019.1
20220120122703 40 165 0.0 0.0 0.07 0.16 0.16 96 1019.0
20220120122204 40 165 0.0 0.0 0.08 0.16 0.16 96 1019.0
20220120121704 40 165 0.0 0.0 0.08 0.15 0.15 96 1018.9
20220120121204 40 165 0.0 0.0 0.08 0.15 0.15 96 1018.7
20220120120705 40 165 0.0 0.0 0.08 0.14 0.14 96 1018.6
20220120120205 40 165 0.0 0.0 0.08 0.13 0.13 96 1018.5
20220120115705 40 165 0.0 0.0 0.07 0.12 0.12 96 1018.4
20220120115205 40 165 0.0 0.0 0.06 0.11 0.11 96 1018.3
20220120114705 40 165 0.0 0.0 0.06 0.11 0.11 96 1018.3
20220120114204 40 165 0.0 0.0 0.06 0.10 0.10 96 1018.3
20220120113704 40 165 0.0 0.0 0.05 0.09 0.09 95 1018.2
20220120113204 40 165 0.0 0.0 0.05 0.09 0.09 95 1018.2
20220120112706 40 165 0.0 0.0 0.06 0.09 0.09 95 1018.1
20220120112203 40 165 0.0 0.0 0.05 0.08 0.08 95 1018.0
20220120111704 40 165 0.0 0.0 0.04 0.07 0.07 95 1018.1
20220120111204 40 165 0.0 0.0 0.04 0.07 0.07 95 1017.8
20220120110705 40 165 0.0 0.0 0.03 0.06 0.06 95 1017.8
20220120110204 40 165 0.0 0.0 0.02 0.05 0.05 95 1017.7
20220120105705 41 165 0.0 0.0 0.02 0.05 0.05 95 1017.6
20220120105204 41 165 0.0 0.0 0.02 0.05 0.05 95 1017.4
20220120104704 41 165 0.0 0.0 0.02 0.05 0.05 95 1017.3
20220120104204 41 165 0.0 0.0 0.01 0.04 0.04 95 1017.2